Time;durP1;ratioP1;P1;durP2;ratioP2;P2;SDS_P1;SDS_P2;PMS_P1;PMS_P2;Temp;Humidity;BMP_temperature;BMP_pressure;BME280_temperature;BME280_humidity;BME280_pressure;Samples;Min_cycle;Max_cycle;Signal;HPM_P1;HPM_P2
2021/10/17 00:00:12;;;;;;;27.35;14.90;;;;;;;15.00;40.98;99031.81;5030907;28;20124;-66
2021/10/17 00:02:42;;;;;;;30.95;15.43;;;;;;;14.90;41.10;99042.03;5029732;28;20042;-65
2021/10/17 00:05:12;;;;;;;25.17;14.15;;;;;;;15.11;41.07;99039.25;5030804;28;20056;-64
2021/10/17 00:07:40;;;;;;;32.65;14.20;;;;;;;14.37;42.19;99030.28;5030986;28;20045;-64
2021/10/17 00:10:08;;;;;;;27.05;13.70;;;;;;;14.70;41.56;99033.94;5046182;28;20916;-64
2021/10/17 00:12:34;;;;;;;23.52;12.82;;;;;;;14.89;40.93;99033.22;5030814;28;20451;-65
2021/10/17 00:15:00;;;;;;;22.88;12.48;;;;;;;14.79;40.90;99034.63;5062774;28;20049;-64
2021/10/17 00:17:26;;;;;;;22.88;13.27;;;;;;;14.58;41.42;99027.53;5029508;28;20589;-65
2021/10/17 00:19:52;;;;;;;25.35;13.93;;;;;;;14.56;41.49;99036.78;5029688;28;20533;-65
2021/10/17 00:22:18;;;;;;;21.80;12.40;;;;;;;14.51;41.81;99040.03;5029349;28;20041;-67
2021/10/17 00:24:44;;;;;;;23.48;14.02;;;;;;;14.71;41.20;99032.09;5029662;28;20401;-65
2021/10/17 00:27:09;;;;;;;25.10;14.48;;;;;;;14.57;41.09;99014.34;5012135;28;20050;-65
2021/10/17 00:29:35;;;;;;;24.70;14.07;;;;;;;14.64;41.06;99039.25;5012719;28;20546;-64
2021/10/17 00:32:01;;;;;;;27.45;15.55;;;;;;;14.63;41.03;99021.56;5029570;28;20042;-64
2021/10/17 00:34:27;;;;;;;26.15;15.00;;;;;;;14.94;40.57;99035.28;5012586;28;20111;-65
2021/10/17 00:36:53;;;;;;;27.88;13.80;;;;;;;14.53;41.44;99037.16;5029409;28;20131;-64
2021/10/17 00:39:19;;;;;;;23.50;13.45;;;;;;;14.33;41.77;99052.25;5045736;28;20124;-66
2021/10/17 00:41:45;;;;;;;23.00;13.55;;;;;;;14.18;42.32;99044.31;5013193;28;20063;-65
2021/10/17 00:44:19;;;;;;;22.80;12.80;;;;;;;14.95;41.27;99043.13;5029344;28;20037;-65
2021/10/17 00:46:44;;;;;;;22.88;12.88;;;;;;;14.63;41.07;99041.13;5030970;28;20042;-64
2021/10/17 00:49:10;;;;;;;21.23;13.00;;;;;;;14.77;40.63;99050.03;5029309;28;20203;-64
2021/10/17 00:51:36;;;;;;;28.00;12.70;;;;;;;14.67;40.75;99038.84;5045620;28;20060;-64
2021/10/17 00:54:02;;;;;;;24.55;11.98;;;;;;;14.75;41.17;99047.56;5029146;28;20052;-65
2021/10/17 00:56:28;;;;;;;20.13;12.07;;;;;;;14.46;41.23;99021.09;5029168;28;20103;-64
2021/10/17 00:58:53;;;;;;;20.52;12.18;;;;;;;14.57;40.95;99017.03;5030538;28;20041;-65
2021/10/17 01:01:19;;;;;;;23.90;12.50;;;;;;;14.44;41.19;99032.97;5044548;28;20037;-71
2021/10/17 01:03:45;;;;;;;20.02;11.35;;;;;;;14.39;41.26;99038.09;5027186;28;20081;-66
2021/10/17 01:06:12;;;;;;;23.20;12.52;;;;;;;14.59;41.00;99025.69;5026660;28;20044;-66
2021/10/17 01:08:39;;;;;;;23.27;12.02;;;;;;;14.65;41.07;99033.72;5026961;28;20473;-66
2021/10/17 01:11:06;;;;;;;21.77;12.05;;;;;;;14.62;41.14;99030.63;5026700;28;20041;-69
2021/10/17 01:13:31;;;;;;;21.33;11.65;;;;;;;13.85;42.08;99002.38;5026642;28;20048;-67
2021/10/17 01:15:57;;;;;;;26.38;12.02;;;;;;;14.15;41.83;99043.84;5026676;28;20038;-66
2021/10/17 01:18:33;;;;;;;22.35;12.15;;;;;;;14.26;41.81;99048.69;5029153;28;20529;-64
2021/10/17 01:21:03;;;;;;;22.38;11.63;;;;;;;14.46;41.26;99031.78;5029539;28;20041;-64
2021/10/17 01:23:31;;;;;;;19.67;11.45;;;;;;;14.37;41.62;99043.66;5028967;28;20053;-64
2021/10/17 01:25:56;;;;;;;19.83;11.63;;;;;;;14.10;41.52;99003.59;5012518;28;20045;-65
2021/10/17 01:28:23;;;;;;;24.50;13.30;;;;;;;14.46;41.62;99042.47;5062259;28;20071;-64
2021/10/17 01:30:49;;;;;;;25.38;12.20;;;;;;;14.13;41.92;99045.91;5045838;28;20049;-64
2021/10/17 01:33:15;;;;;;;23.75;12.55;;;;;;;14.23;41.63;99047.22;5028681;28;20413;-64
2021/10/17 01:35:40;;;;;;;24.00;13.25;;;;;;;14.18;41.67;99046.97;5030229;28;20052;-64
2021/10/17 01:38:07;;;;;;;29.15;13.32;;;;;;;14.20;41.84;99042.28;5028842;28;20049;-64
2021/10/17 01:40:34;;;;;;;27.77;14.18;;;;;;;14.02;41.72;99017.09;5048484;28;20041;-64
2021/10/17 01:43:01;;;;;;;28.00;14.35;;;;;;;14.12;41.68;99036.25;5032217;28;20033;-64
2021/10/17 01:45:34;;;;;;;27.60;13.25;;;;;;;13.82;42.22;99013.44;5032197;28;20103;-64
2021/10/17 01:48:00;;;;;;;26.73;14.50;;;;;;;14.01;41.89;99039.47;5015592;28;20507;-64
2021/10/17 01:50:25;;;;;;;27.73;14.43;;;;;;;13.87;42.14;99037.72;5031723;28;20059;-65
2021/10/17 01:52:52;;;;;;;28.27;14.10;;;;;;;14.10;42.15;99031.09;5032485;28;20085;-68
2021/10/17 01:55:18;;;;;;;30.08;15.43;;;;;;;13.96;42.23;99033.88;5048806;28;20390;-65
2021/10/17 01:57:44;;;;;;;31.55;15.20;;;;;;;13.86;42.48;99020.03;5048550;28;20041;-65
2021/10/17 02:00:14;;;;;;;31.35;16.25;;;;;;;13.99;42.40;99014.81;5032043;28;20040;-65
2021/10/17 02:02:42;;;;;;;26.42;14.35;;;;;;;13.93;42.05;99034.28;5031544;28;20049;-66
2021/10/17 02:05:16;;;;;;;31.75;14.82;;;;;;;13.94;42.12;99027.91;5015244;28;20045;-64
2021/10/17 02:07:44;;;;;;;29.40;14.43;;;;;;;13.90;42.06;99021.31;5031810;28;20049;-64
2021/10/17 02:10:10;;;;;;;26.58;14.63;;;;;;;13.84;42.23;99011.41;5015119;28;20037;-64
2021/10/17 02:12:37;;;;;;;29.10;14.50;;;;;;;13.82;42.35;99030.28;5031597;28;20049;-63
2021/10/17 02:15:05;;;;;;;29.52;15.80;;;;;;;13.86;42.31;99020.03;5047719;28;20091;-66
2021/10/17 02:17:32;;;;;;;27.38;14.45;;;;;;;14.08;42.10;99017.13;5015352;28;20037;-64
2021/10/17 02:19:59;;;;;;;30.25;14.80;;;;;;;13.91;41.87;98990.91;4999005;28;20470;-65
2021/10/17 02:22:26;;;;;;;26.13;14.20;;;;;;;13.90;42.16;99027.44;5015045;28;20485;-65
2021/10/17 02:24:51;;;;;;;26.67;14.38;;;;;;;13.98;41.78;99005.13;5031875;28;20068;-65
2021/10/17 02:27:17;;;;;;;29.88;14.23;;;;;;;14.01;41.76;99018.91;5014961;28;20201;-65
2021/10/17 02:29:46;;;;;;;26.25;13.80;;;;;;;13.89;41.75;98999.13;5031450;28;20040;-64
2021/10/17 02:32:22;;;;;;;24.95;13.35;;;;;;;13.93;42.29;99010.25;5031741;28;20516;-65
2021/10/17 02:34:55;;;;;;;21.25;12.75;;;;;;;13.89;42.13;99001.78;5031307;28;20059;-67
2021/10/17 02:37:21;;;;;;;27.30;14.07;;;;;;;13.78;42.43;99007.66;5015012;28;20124;-65
2021/10/17 02:39:46;;;;;;;24.65;12.90;;;;;;;13.91;42.00;99009.59;5014819;28;20045;-64
2021/10/17 02:42:12;;;;;;;25.15;13.82;;;;;;;13.83;42.17;98994.56;5014810;28;20059;-65
2021/10/17 02:44:41;;;;;;;27.15;13.35;;;;;;;13.84;42.04;99006.88;5014589;28;20045;-65
2021/10/17 02:47:07;;;;;;;26.77;13.43;;;;;;;13.74;41.90;98995.72;5014366;28;20048;-65
2021/10/17 02:49:35;;;;;;;31.52;14.20;;;;;;;13.91;41.92;98990.91;5030914;28;20072;-65
2021/10/17 02:52:01;;;;;;;26.08;13.77;;;;;;;13.80;41.97;99005.63;5030270;28;20450;-65
2021/10/17 02:54:27;;;;;;;29.33;13.98;;;;;;;13.81;42.15;99006.47;5047500;28;20128;-66
2021/10/17 02:56:53;;;;;;;28.55;14.10;;;;;;;13.82;41.79;98992.94;5031386;28;20501;-65
2021/10/17 02:59:22;;;;;;;26.67;13.50;;;;;;;13.73;42.08;99010.06;5014453;28;20037;-65
2021/10/17 03:01:48;;;;;;;26.10;13.80;;;;;;;13.82;41.98;99000.09;5030656;28;20491;-64
2021/10/17 03:04:14;;;;;;;30.90;14.40;;;;;;;13.71;42.07;98973.94;5030760;28;20056;-65
2021/10/17 03:06:40;;;;;;;29.75;13.80;;;;;;;13.82;42.05;99000.09;5030441;28;20037;-65
2021/10/17 03:09:06;;;;;;;27.50;13.82;;;;;;;13.91;41.92;99009.59;5047327;28;20138;-64
2021/10/17 03:11:33;;;;;;;27.73;15.02;;;;;;;13.73;41.99;98988.72;5014043;28;20084;-66
2021/10/17 03:14:00;;;;;;;30.42;15.15;;;;;;;13.62;42.20;98994.59;5030440;28;20046;-65
2021/10/17 03:16:29;;;;;;;30.95;15.10;;;;;;;13.91;42.08;98993.59;5030833;28;20516;-63
2021/10/17 03:18:55;;;;;;;33.10;15.70;;;;;;;13.46;42.70;99001.03;5047011;28;20429;-66
2021/10/17 03:21:21;;;;;;;34.10;15.82;;;;;;;13.63;42.32;98998.09;5013868;28;20038;-64
2021/10/17 03:23:47;;;;;;;34.30;15.38;;;;;;;13.58;42.31;98993.31;5030321;28;20056;-64
2021/10/17 03:26:13;;;;;;;36.15;16.42;;;;;;;13.66;41.84;98965.69;5030203;28;20041;-66
2021/10/17 03:28:42;;;;;;;32.17;15.93;;;;;;;13.52;42.41;98989.59;5047027;28;20042;-64
2021/10/17 03:31:08;;;;;;;32.50;15.82;;;;;;;13.39;42.68;98983.31;5030322;28;20053;-64
2021/10/17 03:33:35;;;;;;;38.60;17.15;;;;;;;13.53;42.81;98985.91;5031135;28;20413;-64
2021/10/17 03:36:08;;;;;;;37.72;16.80;;;;;;;13.38;42.62;98990.50;5030184;28;20052;-62
2021/10/17 03:38:37;;;;;;;35.53;17.02;;;;;;;13.42;42.68;98997.09;5046544;28;20053;-65
2021/10/17 03:41:02;;;;;;;30.60;14.68;;;;;;;13.45;42.34;98995.91;5029990;28;20064;-67
2021/10/17 03:43:34;;;;;;;33.38;15.45;;;;;;;13.36;42.80;98989.84;5029997;28;20034;-68
2021/10/17 03:46:00;;;;;;;33.28;16.13;;;;;;;13.25;42.79;98986.88;5013479;28;20140;-70
2021/10/17 03:48:30;;;;;;;32.60;15.15;;;;;;;13.21;42.94;98993.59;5031495;28;20095;-68
2021/10/17 03:50:58;;;;;;;34.17;15.48;;;;;;;13.11;42.80;98969.09;5030458;28;20567;-72
2021/10/17 03:53:24;;;;;;;28.02;14.10;;;;;;;13.33;42.60;98986.75;5013548;28;20034;-67
2021/10/17 03:55:49;;;;;;;28.30;13.52;;;;;;;13.37;42.47;98988.03;5031226;28;20048;-68
2021/10/17 03:58:15;;;;;;;28.70;13.68;;;;;;;13.40;42.55;98985.81;5029811;28;20056;-66
2021/10/17 04:00:41;;;;;;;26.27;13.20;;;;;;;13.32;42.56;98977.94;5013159;28;20041;-67
2021/10/17 04:03:07;;;;;;;24.67;12.48;;;;;;;13.42;42.36;98973.06;5029774;28;20049;-67
2021/10/17 04:05:35;;;;;;;25.67;12.57;;;;;;;13.50;42.10;98985.44;5030027;28;20519;-68
2021/10/17 04:08:02;;;;;;;26.05;13.00;;;;;;;13.39;42.07;98975.31;5013226;28;20037;-70
2021/10/17 04:10:31;;;;;;;22.17;12.18;;;;;;;13.23;42.28;98979.06;5013140;28;20586;-72
2021/10/17 04:12:57;;;;;;;23.45;13.07;;;;;;;13.42;42.20;98988.28;5013413;28;20045;-70
2021/10/17 04:15:23;;;;;;;23.52;11.90;;;;;;;13.35;41.95;98966.03;5029353;28;20136;-70
2021/10/17 04:17:50;;;;;;;21.98;12.27;;;;;;;13.39;42.02;98984.13;5030744;28;20056;-72
2021/10/17 04:20:15;;;;;;;22.77;12.40;;;;;;;13.33;41.84;98958.22;5030459;28;20041;-70
2021/10/17 04:22:41;;;;;;;24.50;11.73;;;;;;;13.53;41.60;98974.38;5029332;28;20052;-69
2021/10/17 04:25:08;;;;;;;22.73;11.68;;;;;;;13.75;41.39;98980.53;5012964;28;20469;-71
2021/10/17 04:27:35;;;;;;;22.13;12.18;;;;;;;13.40;42.13;98966.28;5029241;28;20509;-70
2021/10/17 04:30:04;;;;;;;19.95;11.02;;;;;;;13.75;41.79;98980.53;5029424;28;20046;-69
2021/10/17 04:32:30;;;;;;;21.50;10.77;;;;;;;13.52;41.59;98983.44;5029506;28;20145;-71
2021/10/17 04:34:55;;;;;;;23.05;11.13;;;;;;;13.49;41.51;98979.31;5029288;28;20397;-69
2021/10/17 04:37:21;;;;;;;22.05;11.18;;;;;;;13.52;41.67;98991.44;5012564;28;20041;-68
2021/10/17 04:39:47;;;;;;;26.90;11.18;;;;;;;13.55;41.49;98993.72;5045864;28;20128;-68
2021/10/17 04:42:12;;;;;;;23.95;10.88;;;;;;;13.71;41.12;98997.94;5030500;28;20047;-68
2021/10/17 04:44:39;;;;;;;19.83;10.55;;;;;;;13.64;41.19;98978.41;5012473;28;20046;-73
2021/10/17 04:47:04;;;;;;;18.65;10.15;;;;;;;13.44;41.74;98970.22;5013481;28;20049;-69
2021/10/17 04:49:31;;;;;;;19.98;10.40;;;;;;;13.58;41.39;98988.81;5065832;28;20079;-70
2021/10/17 04:51:57;;;;;;;21.05;9.88;;;;;;;13.78;40.86;98993.50;5032262;28;20053;-70
2021/10/17 04:54:23;;;;;;;16.23;9.73;;;;;;;13.77;41.02;98981.16;5032120;28;20045;-70
2021/10/17 04:56:49;;;;;;;21.08;9.85;;;;;;;13.96;40.61;98996.50;5049899;28;20322;-69
2021/10/17 04:59:20;;;;;;;17.77;9.73;;;;;;;13.61;40.87;98960.13;5049014;28;20435;-72
2021/10/17 05:01:48;;;;;;;18.90;9.43;;;;;;;14.23;40.30;98993.81;5032722;28;20120;-72
2021/10/17 05:04:18;;;;;;;19.00;9.65;;;;;;;14.11;40.35;98995.38;5049083;28;20045;-73
2021/10/17 05:06:44;;;;;;;16.15;9.25;;;;;;;13.89;40.40;98988.44;5032331;28;20100;-70
2021/10/17 05:09:10;;;;;;;16.10;9.13;;;;;;;14.04;40.43;98981.16;5050027;28;20048;-73
2021/10/17 05:11:36;;;;;;;18.95;9.57;;;;;;;14.15;40.15;99001.13;5032317;28;20045;-74
2021/10/17 05:14:03;;;;;;;17.58;9.93;;;;;;;13.98;40.24;98992.59;5033189;28;20045;-69
2021/10/17 05:16:29;;;;;;;18.23;9.85;;;;;;;13.91;40.27;98972.22;5054204;28;20384;-71
2021/10/17 05:18:55;;;;;;;19.60;9.23;;;;;;;13.92;40.63;98984.53;5052224;28;20086;-70
2021/10/17 05:21:21;;;;;;;17.40;9.23;;;;;;;14.16;39.98;99006.28;5052614;28;20465;-70
2021/10/17 05:23:48;;;;;;;17.98;9.57;;;;;;;14.05;40.34;98998.00;5035780;28;20041;-70
2021/10/17 05:26:14;;;;;;;15.50;9.55;;;;;;;14.18;39.96;98995.41;5052739;28;20549;-69
2021/10/17 05:28:41;;;;;;;14.73;8.95;;;;;;;14.24;39.82;98984.78;5035629;28;20045;-69
2021/10/17 05:31:07;;;;;;;14.60;9.15;;;;;;;14.23;39.59;98963.59;5052256;28;20044;-69
2021/10/17 05:33:37;;;;;;;13.70;8.85;;;;;;;14.51;39.45;99004.47;5051970;28;20044;-67
2021/10/17 05:36:04;;;;;;;19.20;9.35;;;;;;;14.45;39.69;99003.38;5036016;28;20091;-68
2021/10/17 05:38:30;;;;;;;18.17;9.73;;;;;;;14.26;39.77;98989.94;5052433;28;20098;-67
2021/10/17 05:40:55;;;;;;;15.45;9.35;;;;;;;14.50;39.62;98997.47;5053242;28;20455;-74
2021/10/17 05:43:21;;;;;;;17.17;9.43;;;;;;;14.69;39.19;98991.38;5053442;28;20052;-68
2021/10/17 05:45:47;;;;;;;15.13;9.23;;;;;;;14.66;39.21;98981.94;5051894;28;20539;-69
2021/10/17 05:48:13;;;;;;;18.35;9.48;;;;;;;14.75;38.73;98987.91;5068467;28;20049;-71
2021/10/17 05:50:39;;;;;;;16.55;8.57;;;;;;;14.68;39.07;99006.59;5034944;28;20144;-70
2021/10/17 05:53:04;;;;;;;13.95;9.60;;;;;;;14.17;40.08;98991.09;5051908;28;20056;-70
2021/10/17 05:55:30;;;;;;;16.75;9.55;;;;;;;14.89;38.96;98968.22;5035285;28;20504;-68
2021/10/17 05:57:56;;;;;;;18.25;8.90;;;;;;;14.81;39.04;98982.59;5051517;28;20041;-70
2021/10/17 06:00:23;;;;;;;12.77;7.85;;;;;;;15.02;38.71;99000.34;5018514;28;20041;-69
2021/10/17 06:02:54;;;;;;;13.88;8.23;;;;;;;14.88;38.62;98979.94;5051580;28;20041;-70
2021/10/17 06:05:21;;;;;;;19.58;8.82;;;;;;;15.28;37.94;99008.44;5051345;28;20079;-70
2021/10/17 06:07:48;;;;;;;18.67;7.80;;;;;;;15.67;37.39;99007.69;5034637;28;20067;-70
2021/10/17 06:10:14;;;;;;;13.05;7.22;;;;;;;15.85;37.05;99008.69;5034634;28;20469;-69
2021/10/17 06:12:41;;;;;;;16.75;7.45;;;;;;;16.18;36.78;99000.63;5034499;28;20087;-70
2021/10/17 06:15:08;;;;;;;13.63;8.15;;;;;;;16.72;36.09;98990.41;5034720;28;20135;-68
2021/10/17 06:17:34;;;;;;;18.85;7.45;;;;;;;16.37;35.79;98983.69;5068098;28;20076;-68
2021/10/17 06:20:02;;;;;;;10.82;6.75;;;;;;;16.55;35.97;98989.22;5034564;28;20148;-73
2021/10/17 06:22:33;;;;;;;14.10;7.75;;;;;;;16.53;35.85;98996.66;5020159;28;20414;-72
2021/10/17 06:24:59;;;;;;;11.77;7.45;;;;;;;16.99;35.09;98997.28;5051050;28;20045;-76
2021/10/17 06:27:25;;;;;;;10.50;6.68;;;;;;;17.01;34.87;98991.69;5017944;28;20412;-70
2021/10/17 06:29:51;;;;;;;11.65;6.45;;;;;;;17.46;33.91;98972.66;5067708;28;20041;-70
2021/10/17 06:32:17;;;;;;;12.63;7.50;;;;;;;17.59;34.36;98999.41;5034622;28;20057;-69
2021/10/17 06:34:44;;;;;;;11.48;6.75;;;;;;;17.25;34.22;98990.97;5055997;28;20071;-68
2021/10/17 06:37:11;;;;;;;13.18;6.63;;;;;;;17.38;33.67;98972.06;5018253;28;20047;-70
2021/10/17 06:39:38;;;;;;;15.13;6.60;;;;;;;17.31;34.11;98982.88;5039715;28;20098;-72
2021/10/17 06:42:05;;;;;;;10.85;6.68;;;;;;;18.01;33.04;98997.81;5034142;28;20037;-69
2021/10/17 06:44:52;;;;;;;8.85;6.05;;;;;;;17.97;32.87;98997.47;5036958;28;20449;-68
2021/10/17 06:47:18;;;;;;;12.02;6.55;;;;;;;17.51;33.44;99006.91;5017488;28;20107;-69
2021/10/17 06:49:44;;;;;;;10.73;6.80;;;;;;;18.07;32.59;99002.31;4998945;28;20037;-68
2021/10/17 06:52:15;;;;;;;9.85;6.45;;;;;;;18.78;31.81;99006.13;5008194;28;20041;-67
2021/10/17 06:54:41;;;;;;;9.40;5.97;;;;;;;18.28;32.16;99008.09;5055154;28;20040;-68
2021/10/17 06:57:07;;;;;;;11.80;5.85;;;;;;;20.02;30.19;99010.50;5029811;28;20152;-69
2021/10/17 06:59:33;;;;;;;9.98;5.57;;;;;;;21.64;27.61;99008.28;5028608;28;20619;-70
2021/10/17 07:02:00;;;;;;;11.00;5.72;;;;;;;22.68;25.91;99002.06;5048924;28;20045;-69
2021/10/17 07:04:26;;;;;;;9.07;6.15;;;;;;;23.54;23.87;99017.44;5046538;28;20095;-69
2021/10/17 07:06:52;;;;;;;9.00;5.82;;;;;;;24.27;23.17;98986.88;5061675;28;20126;-69
2021/10/17 07:09:18;;;;;;;8.80;5.60;;;;;;;21.91;25.56;99004.97;5029905;28;20037;-69
2021/10/17 07:11:52;;;;;;;10.45;5.93;;;;;;;22.45;25.45;98999.56;5029335;28;20041;-69
2021/10/17 07:14:33;;;;;;;11.38;5.75;;;;;;;20.97;25.98;99005.66;5030628;28;20045;-70
2021/10/17 07:17:13;;;;;;;9.47;6.10;;;;;;;21.89;26.18;99004.38;5015794;28;20064;-69
2021/10/17 07:19:39;;;;;;;10.48;5.53;;;;;;;23.07;24.67;99024.50;5013128;28;20041;-69
2021/10/17 07:22:05;;;;;;;8.98;5.80;;;;;;;23.06;24.25;99003.91;5030601;28;20111;-68
2021/10/17 07:24:34;;;;;;;11.48;6.10;;;;;;;22.50;24.81;99020.47;5046366;28;20049;-68
2021/10/17 07:27:00;;;;;;;10.05;6.00;;;;;;;21.76;25.85;99027.16;5046889;28;20521;-72
2021/10/17 07:29:26;;;;;;;12.70;6.47;;;;;;;20.14;28.20;99012.44;5006693;28;20870;-68
2021/10/17 07:31:52;;;;;;;11.93;6.13;;;;;;;21.73;26.56;99008.69;5001179;28;20041;-68
2021/10/17 07:34:18;;;;;;;18.83;10.48;;;;;;;21.24;26.54;98988.66;5069617;28;20059;-70
2021/10/17 07:36:44;;;;;;;10.35;5.53;;;;;;;23.05;24.32;99021.22;5045367;28;20118;-68
2021/10/17 07:39:19;;;;;;;11.57;5.90;;;;;;;23.57;23.74;99011.50;5049227;28;20036;-68
2021/10/17 07:41:49;;;;;;;10.00;5.57;;;;;;;24.53;22.17;99004.97;5051071;28;20086;-69
2021/10/17 07:44:16;;;;;;;10.32;5.85;;;;;;;25.07;22.04;99022.63;5058717;28;20076;-68
2021/10/17 07:46:55;;;;;;;9.40;5.30;;;;;;;24.19;22.25;98992.81;5047879;28;20519;-68
2021/10/17 07:49:23;;;;;;;9.82;6.10;;;;;;;23.69;23.33;99011.38;5045486;28;20041;-68
2021/10/17 07:51:49;;;;;;;8.65;5.05;;;;;;;25.25;21.24;99005.03;5022768;28;20057;-69
2021/10/17 07:54:16;;;;;;;8.18;5.47;;;;;;;24.06;22.85;99015.78;5028376;28;20052;-69
2021/10/17 07:56:43;;;;;;;9.95;5.35;;;;;;;24.65;21.79;99036.28;5046914;28;20075;-68
2021/10/17 07:59:10;;;;;;;14.15;5.55;;;;;;;24.56;22.42;99021.56;5046022;28;20075;-71
2021/10/17 08:01:36;;;;;;;12.35;4.90;;;;;;;23.98;22.93;99018.97;5041238;28;20068;-67
2021/10/17 08:04:20;;;;;;;9.32;5.38;;;;;;;23.13;24.10;99018.06;5047511;28;20508;-71
2021/10/17 08:07:08;;;;;;;11.32;5.45;;;;;;;22.19;24.18;99013.78;5054717;28;20049;-69
2021/10/17 08:09:34;;;;;;;8.90;5.63;;;;;;;21.91;25.74;99008.47;5047987;28;20063;-68
2021/10/17 08:12:01;;;;;;;11.18;4.72;;;;;;;21.66;26.35;99010.75;5020235;28;20419;-69
2021/10/17 08:14:30;;;;;;;11.55;5.22;;;;;;;23.03;24.15;99017.97;5057076;28;20104;-70
2021/10/17 08:16:56;;;;;;;8.43;4.90;;;;;;;23.51;24.10;99033.44;5024935;28;20057;-69
2021/10/17 08:19:41;;;;;;;8.13;4.80;;;;;;;21.61;25.90;99013.34;5021199;28;20084;-70
2021/10/17 08:22:09;;;;;;;8.00;4.90;;;;;;;21.46;25.95;99032.00;5046284;28;20492;-69
2021/10/17 08:24:35;;;;;;;12.70;6.40;;;;;;;21.28;27.18;99016.78;5020457;28;20068;-69
2021/10/17 08:27:03;;;;;;;8.95;5.20;;;;;;;22.93;24.74;99023.25;5026857;28;20041;-69
2021/10/17 08:29:32;;;;;;;10.35;4.82;;;;;;;25.10;21.57;99034.88;5061786;28;20084;-70
2021/10/17 08:31:58;;;;;;;12.40;4.78;;;;;;;26.27;20.00;99027.47;5003975;28;20131;-70
2021/10/17 08:34:26;;;;;;;9.88;4.60;;;;;;;26.93;19.43;99029.00;5061163;28;20136;-69
2021/10/17 08:36:52;;;;;;;11.60;5.13;;;;;;;25.03;20.82;99051.44;5048620;28;20575;-69
2021/10/17 08:39:38;;;;;;;10.50;4.57;;;;;;;23.18;23.56;99027.09;5034910;28;20056;-69
2021/10/17 08:42:04;;;;;;;11.85;5.45;;;;;;;22.63;23.69;98982.25;5027835;28;20045;-69
2021/10/17 08:44:30;;;;;;;8.00;4.60;;;;;;;22.15;24.96;99028.06;5027425;28;20047;-68
2021/10/17 08:47:07;;;;;;;12.02;7.20;;;;;;;24.34;22.55;99031.72;5030929;28;20044;-67
2021/10/17 08:49:41;;;;;;;9.40;4.90;;;;;;;24.19;21.96;99025.38;5014451;28;20053;-69
2021/10/17 08:52:10;;;;;;;9.05;4.70;;;;;;;23.20;23.69;99027.63;4999871;28;20422;-69
2021/10/17 08:54:39;;;;;;;10.25;5.00;;;;;;;22.72;24.33;99029.47;5015621;28;20045;-72
2021/10/17 08:57:07;;;;;;;9.95;4.97;;;;;;;22.49;24.91;99022.38;5032938;28;20128;-71
2021/10/17 08:59:34;;;;;;;11.25;5.20;;;;;;;21.11;26.50;99017.81;5049365;28;20049;-69
2021/10/17 09:02:12;;;;;;;11.20;4.95;;;;;;;19.84;28.77;99015.19;5049710;28;20147;-73
2021/10/17 09:04:38;;;;;;;9.52;4.95;;;;;;;19.84;28.83;99005.22;5066693;28;20045;-73
2021/10/17 09:07:21;;;;;;;8.18;3.92;;;;;;;21.09;27.24;99028.88;5063690;28;20049;-67
2021/10/17 09:10:13;;;;;;;11.50;4.53;;;;;;;21.02;27.75;99019.28;5034179;28;20041;-71
2021/10/17 09:12:42;;;;;;;14.25;5.30;;;;;;;21.25;27.04;99021.88;5033176;28;20513;-68
2021/10/17 09:15:25;;;;;;;8.85;4.45;;;;;;;21.83;26.61;99035.09;5065916;28;20049;-74
2021/10/17 09:18:06;;;;;;;14.88;4.70;;;;;;;22.53;25.80;99037.06;5049505;28;20513;-74
2021/10/17 09:20:52;;;;;;;9.45;4.38;;;;;;;21.97;25.93;99034.56;5066253;28;20041;-73
2021/10/17 09:23:21;;;;;;;8.48;4.80;;;;;;;21.46;26.95;99030.09;5048313;28;20053;-75
2021/10/17 09:25:48;;;;;;;11.00;4.75;;;;;;;20.45;28.32;99025.56;5044738;28;20052;-73
2021/10/17 09:28:17;;;;;;;11.30;4.80;;;;;;;20.33;28.40;99022.06;5068939;28;20047;-72
2021/10/17 09:30:44;;;;;;;9.70;4.90;;;;;;;19.42;29.41;99027.03;5052292;28;20053;-70
2021/10/17 09:33:15;;;;;;;10.57;4.53;;;;;;;18.84;30.80;99026.75;5051816;28;20033;-72
2021/10/17 09:35:41;;;;;;;8.25;4.35;;;;;;;18.41;30.75;99016.06;5077021;28;20123;-72
2021/10/17 09:38:39;;;;;;;11.05;5.60;;;;;;;19.49;30.46;99047.44;5048315;28;20174;-73
2021/10/17 09:41:15;;;;;;;8.60;4.57;;;;;;;19.48;29.56;99043.09;5066097;28;20068;-72
2021/10/17 09:43:56;;;;;;;13.30;4.80;;;;;;;19.01;30.19;99041.22;5062400;28;20061;-71
2021/10/17 09:46:33;;;;;;;6.75;4.07;;;;;;;19.23;30.40;99045.09;5047724;28;20073;-68
2021/10/17 09:48:59;;;;;;;9.70;4.00;;;;;;;20.23;27.99;99038.81;5050828;28;20539;-74
2021/10/17 09:51:28;;;;;;;10.95;4.18;;;;;;;21.13;27.12;99029.19;5050035;28;20049;-71
2021/10/17 09:53:56;;;;;;;8.10;4.30;;;;;;;20.08;27.68;99035.75;5051257;28;20047;-73
2021/10/17 09:56:36;;;;;;;8.35;4.20;;;;;;;20.89;27.59;99049.19;5051251;28;20519;-73
2021/10/17 09:59:05;;;;;;;12.05;3.97;;;;;;;19.60;28.88;99041.25;5033700;28;20443;-71
2021/10/17 10:01:32;;;;;;;9.18;4.25;;;;;;;20.47;28.21;99026.97;5049068;28;20093;-70
2021/10/17 10:04:01;;;;;;;9.93;4.20;;;;;;;20.34;28.54;99034.47;5047672;28;20037;-72
2021/10/17 10:06:28;;;;;;;10.05;4.50;;;;;;;18.44;30.41;99031.75;5051556;28;20045;-75
2021/10/17 10:09:00;;;;;;;7.70;4.72;;;;;;;18.11;31.95;99025.03;5050246;28;20052;-72
2021/10/17 10:11:27;;;;;;;9.40;5.05;;;;;;;18.38;31.94;99024.56;5034394;28;20563;-73
2021/10/17 10:13:57;;;;;;;11.82;4.13;;;;;;;19.21;30.94;99033.72;5020247;28;20138;-70
2021/10/17 10:16:24;;;;;;;8.13;3.87;;;;;;;18.16;31.91;99031.38;5029445;28;20037;-70
2021/10/17 10:18:53;;;;;;;10.05;4.20;;;;;;;18.32;31.59;99027.28;5013277;28;20068;-70
2021/10/17 10:21:20;;;;;;;9.35;5.10;;;;;;;17.09;33.64;99034.38;5063807;28;20045;-71
2021/10/17 10:23:48;;;;;;;31.08;4.85;;;;;;;16.61;34.19;99052.72;5048291;28;20048;-68
2021/10/17 10:26:15;;;;;;;7.43;4.05;;;;;;;17.87;32.73;99032.03;5047325;28;20041;-69
2021/10/17 10:28:41;;;;;;;12.20;4.35;;;;;;;18.29;32.05;99036.63;5064649;28;20041;-70
2021/10/17 10:31:07;;;;;;;11.07;4.40;;;;;;;19.74;29.49;99026.53;5048801;28;20095;-71
2021/10/17 10:33:42;;;;;;;9.25;3.85;;;;;;;20.13;28.77;99029.66;5073731;28;20063;-66
2021/10/17 10:36:16;;;;;;;8.35;3.97;;;;;;;19.84;29.45;99037.56;5066835;28;20037;-67
2021/10/17 10:38:48;;;;;;;7.32;3.60;;;;;;;20.05;28.73;99052.34;5031326;28;20136;-67
2021/10/17 10:41:15;;;;;;;8.13;4.32;;;;;;;18.78;30.54;99002.59;5039654;28;20068;-68
2021/10/17 10:43:41;;;;;;;11.43;3.95;;;;;;;18.84;30.38;99031.28;5048201;28;20045;-66
2021/10/17 10:46:07;;;;;;;8.38;4.20;;;;;;;17.23;32.85;99033.28;5049487;28;20048;-66
2021/10/17 10:48:45;;;;;;;7.53;3.50;;;;;;;17.66;32.36;99012.78;5032476;28;20607;-66
2021/10/17 10:51:11;;;;;;;8.98;3.80;;;;;;;17.85;32.20;99012.63;5050371;28;20098;-67
2021/10/17 10:53:51;;;;;;;8.18;4.00;;;;;;;18.19;31.84;99024.72;5048961;28;20083;-66
2021/10/17 10:56:40;;;;;;;6.80;3.83;;;;;;;18.42;31.60;99012.31;5032687;28;20139;-65
2021/10/17 10:59:06;;;;;;;9.77;3.92;;;;;;;19.06;30.27;99000.16;5050256;28;20103;-66
2021/10/17 11:01:51;;;;;;;9.73;3.72;;;;;;;19.51;29.48;99015.69;5032489;28;20626;-68
2021/10/17 11:04:47;;;;;;;6.20;3.75;;;;;;;19.31;29.72;99025.13;5065618;28;20626;-66
2021/10/17 11:07:29;;;;;;;7.95;3.95;;;;;;;18.60;31.35;99029.50;5045027;28;20075;-71
2021/10/17 11:09:57;;;;;;;9.93;3.75;;;;;;;18.81;30.66;99016.44;5048690;28;20048;-68
2021/10/17 11:12:39;;;;;;;8.02;4.05;;;;;;;19.33;29.83;99014.94;5047413;28;20037;-66
2021/10/17 11:15:05;;;;;;;;;;;;;;;19.62;29.36;99023.00;5032495;28;20048;-66
2021/10/17 11:17:30;;;;;;;6.25;3.40;;;;;;;18.48;30.01;99013.31;5048667;28;19943;-66
2021/10/17 11:19:56;;;;;;;7.78;3.75;;;;;;;18.45;30.51;99016.44;5049820;28;20056;-66
2021/10/17 11:22:22;;;;;;;9.15;3.90;;;;;;;19.08;30.18;99012.34;5032121;28;20037;-67
2021/10/17 11:24:52;;;;;;;8.93;3.65;;;;;;;19.36;29.64;98992.94;5049831;28;20052;-67
2021/10/17 11:27:18;;;;;;;7.87;3.47;;;;;;;19.63;29.46;99010.34;5048450;28;20037;-66
2021/10/17 11:29:45;;;;;;;9.50;4.35;;;;;;;19.95;29.08;99009.00;5031666;28;20284;-66